Time;durP1;ratioP1;P1;durP2;ratioP2;P2;SDS_P1;SDS_P2;PMS_P1;PMS_P2;Temp;Humidity;BMP_temperature;BMP_pressure;BME280_temperature;BME280_humidity;BME280_pressure;Samples;Min_cycle;Max_cycle;Signal;HPM_P1;HPM_P2
2023/10/23 00:00:09;;;;;;;3.88;0.80;;;;;;;;;;5118987;27;20042;-59
2023/10/23 00:02:38;;;;;;;2.35;0.70;;;;;;;;;;5103930;27;20031;-59
2023/10/23 00:05:05;;;;;;;1.80;0.60;;;;;;;;;;5113035;27;20031;-58
2023/10/23 00:07:31;;;;;;;2.80;0.93;;;;;;;;;;5107725;27;20036;-59
2023/10/23 00:09:58;;;;;;;3.40;0.90;;;;;;;;;;5114809;27;20023;-60
2023/10/23 00:12:24;;;;;;;2.40;0.70;;;;;;;;;;5117737;27;20030;-59
2023/10/23 00:14:50;;;;;;;3.25;0.88;;;;;;;;;;5098630;27;20027;-59
2023/10/23 00:17:16;;;;;;;2.28;0.63;;;;;;;;;;5107388;27;20062;-60
2023/10/23 00:19:42;;;;;;;4.88;0.90;;;;;;;;;;5108450;28;20032;-59
2023/10/23 00:22:08;;;;;;;5.00;1.20;;;;;;;;;;5113468;27;20483;-60
2023/10/23 00:24:34;;;;;;;1.15;0.63;;;;;;;;;;5092929;27;20031;-60
2023/10/23 00:27:00;;;;;;;2.03;0.60;;;;;;;;;;5105474;27;20028;-59
2023/10/23 00:29:26;;;;;;;2.05;0.80;;;;;;;;;;5092409;28;20039;-59
2023/10/23 00:31:52;;;;;;;3.47;0.60;;;;;;;;;;5088084;28;20036;-60
2023/10/23 00:34:18;;;;;;;1.40;0.80;;;;;;;;;;5110774;27;20039;-60
2023/10/23 00:36:44;;;;;;;1.55;0.70;;;;;;;;;;5089674;28;20032;-60
2023/10/23 00:39:10;;;;;;;2.20;0.60;;;;;;;;;;5092285;27;20067;-59
2023/10/23 00:41:37;;;;;;;2.13;0.68;;;;;;;;;;5098750;27;20035;-59
2023/10/23 00:44:04;;;;;;;1.80;0.70;;;;;;;;;;5111964;27;20027;-59
2023/10/23 00:46:33;;;;;;;3.25;0.68;;;;;;;;;;5107920;27;20086;-58
2023/10/23 00:48:59;;;;;;;1.08;0.60;;;;;;;;;;5104892;27;20040;-58
2023/10/23 00:51:27;;;;;;;1.58;0.95;;;;;;;;;;5096112;28;20058;-58
2023/10/23 00:53:55;;;;;;;2.15;0.63;;;;;;;;;;5113716;27;20058;-58
2023/10/23 00:56:21;;;;;;;3.05;0.77;;;;;;;;;;5113064;27;20047;-59
2023/10/23 00:58:47;;;;;;;1.75;0.60;;;;;;;;;;5090595;28;20042;-58
2023/10/23 01:01:14;;;;;;;3.47;0.70;;;;;;;;;;5109227;27;20054;-59
2023/10/23 01:03:41;;;;;;;4.68;0.80;;;;;;;;;;5119675;27;20043;-59
2023/10/23 01:06:07;;;;;;;0.93;0.60;;;;;;;;;;5097039;27;20050;-59
2023/10/23 01:08:34;;;;;;;0.88;0.73;;;;;;;;;;5109829;27;20406;-59
2023/10/23 01:11:00;;;;;;;1.58;0.80;;;;;;;;;;5115099;27;20046;-60
2023/10/23 01:13:26;;;;;;;2.00;0.63;;;;;;;;;;5092704;28;20632;-58
2023/10/23 01:15:53;;;;;;;1.77;0.65;;;;;;;;;;5109649;27;20054;-59
2023/10/23 01:18:19;;;;;;;2.15;0.60;;;;;;;;;;5091504;27;20411;-59
2023/10/23 01:20:46;;;;;;;2.78;0.70;;;;;;;;;;5110506;27;20054;-59
2023/10/23 01:23:12;;;;;;;1.73;0.63;;;;;;;;;;5107866;28;20035;-59
2023/10/23 01:25:38;;;;;;;2.58;0.50;;;;;;;;;;5113552;27;20034;-59
2023/10/23 01:28:05;;;;;;;3.85;0.60;;;;;;;;;;5104440;27;20481;-59
2023/10/23 01:30:31;;;;;;;4.28;0.77;;;;;;;;;;5109753;27;20027;-58
2023/10/23 01:32:58;;;;;;;2.20;0.70;;;;;;;;;;5105869;27;20039;-60
2023/10/23 01:35:24;;;;;;;1.63;0.68;;;;;;;;;;5115024;27;20049;-60
2023/10/23 01:37:51;;;;;;;1.00;0.65;;;;;;;;;;5111140;27;20507;-60
2023/10/23 01:40:18;;;;;;;0.65;0.50;;;;;;;;;;5090977;28;20043;-59
2023/10/23 01:42:46;;;;;;;1.90;0.57;;;;;;;;;;5112858;27;20031;-59
2023/10/23 01:45:13;;;;;;;1.90;0.63;;;;;;;;;;5094387;27;20047;-60
2023/10/23 01:47:39;;;;;;;6.07;0.77;;;;;;;;;;5087036;28;20491;-59
2023/10/23 01:50:06;;;;;;;3.70;0.73;;;;;;;;;;5105245;27;20031;-59
2023/10/23 01:52:32;;;;;;;3.60;0.82;;;;;;;;;;5111952;27;20031;-59
2023/10/23 01:55:00;;;;;;;0.40;0.40;;;;;;;;;;5108487;27;20376;-60
2023/10/23 01:57:29;;;;;;;1.08;0.50;;;;;;;;;;5093826;28;20027;-59
2023/10/23 02:00:03;;;;;;;1.30;0.60;;;;;;;;;;5089087;28;20031;-59
2023/10/23 02:02:40;;;;;;;2.53;0.77;;;;;;;;;;5107055;28;20031;-60
2023/10/23 02:05:06;;;;;;;5.72;0.70;;;;;;;;;;5111139;27;20040;-60
2023/10/23 02:07:32;;;;;;;2.13;0.70;;;;;;;;;;5106103;27;20047;-60
2023/10/23 02:10:00;;;;;;;1.95;0.45;;;;;;;;;;5114472;27;20664;-59
2023/10/23 02:12:26;;;;;;;2.88;0.50;;;;;;;;;;5107248;27;20035;-60
2023/10/23 02:14:52;;;;;;;1.73;0.60;;;;;;;;;;5110726;27;20047;-60
2023/10/23 02:17:20;;;;;;;3.05;0.65;;;;;;;;;;5073451;28;20050;-59
2023/10/23 02:19:46;;;;;;;0.90;0.73;;;;;;;;;;5114090;27;20533;-59
2023/10/23 02:22:12;;;;;;;2.67;0.60;;;;;;;;;;5087446;28;20046;-60
2023/10/23 02:24:38;;;;;;;2.08;0.73;;;;;;;;;;5091745;28;20403;-60
2023/10/23 02:27:05;;;;;;;1.27;0.60;;;;;;;;;;5102221;28;20050;-60
2023/10/23 02:29:32;;;;;;;2.90;0.88;;;;;;;;;;5086703;28;20046;-60
2023/10/23 02:31:58;;;;;;;1.65;0.57;;;;;;;;;;5104063;28;20036;-59
2023/10/23 02:34:24;;;;;;;1.48;0.82;;;;;;;;;;5110075;27;20050;-60
2023/10/23 02:36:50;;;;;;;0.77;0.60;;;;;;;;;;5109525;27;20420;-59
2023/10/23 02:39:17;;;;;;;1.75;0.65;;;;;;;;;;5113473;27;20051;-59
2023/10/23 02:41:43;;;;;;;1.83;0.60;;;;;;;;;;5097248;28;20490;-59
2023/10/23 02:44:10;;;;;;;2.72;1.05;;;;;;;;;;5109184;28;20044;-60
2023/10/23 02:46:38;;;;;;;4.75;1.00;;;;;;;;;;5100705;28;20035;-60
2023/10/23 02:49:05;;;;;;;1.83;0.75;;;;;;;;;;5108851;28;20495;-60
2023/10/23 02:51:31;;;;;;;2.45;0.90;;;;;;;;;;5115174;28;20069;-59
2023/10/23 02:53:57;;;;;;;0.88;0.60;;;;;;;;;;5091590;28;20031;-59
2023/10/23 02:56:23;;;;;;;0.68;0.68;;;;;;;;;;5096381;28;20047;-60
2023/10/23 02:58:49;;;;;;;2.35;0.55;;;;;;;;;;5080397;28;20038;-60
2023/10/23 03:01:17;;;;;;;3.67;1.63;;;;;;;;;;5110555;28;20038;-60
2023/10/23 03:03:43;;;;;;;2.35;1.52;;;;;;;;;;5115885;27;20027;-60
2023/10/23 03:06:10;;;;;;;2.35;1.42;;;;;;;;;;5092382;27;20035;-59
2023/10/23 03:08:36;;;;;;;1.60;0.60;;;;;;;;;;5115663;27;20506;-59
2023/10/23 03:11:02;;;;;;;2.08;0.65;;;;;;;;;;5088197;28;20649;-59
2023/10/23 03:13:28;;;;;;;3.95;1.05;;;;;;;;;;5119184;27;20050;-59
2023/10/23 03:15:54;;;;;;;1.80;0.98;;;;;;;;;;5119428;27;20039;-58
2023/10/23 03:18:21;;;;;;;3.97;0.90;;;;;;;;;;5086645;27;20525;-59
2023/10/23 03:20:47;;;;;;;1.90;0.80;;;;;;;;;;5092275;28;20426;-58
2023/10/23 03:23:13;;;;;;;4.32;0.77;;;;;;;;;;5095695;28;20104;-58
2023/10/23 03:25:39;;;;;;;3.88;0.80;;;;;;;;;;5104484;28;20031;-58
2023/10/23 03:28:05;;;;;;;1.05;0.63;;;;;;;;;;5112699;27;20062;-58
2023/10/23 03:30:31;;;;;;;1.33;0.70;;;;;;;;;;5113192;27;20019;-59
2023/10/23 03:32:58;;;;;;;2.35;0.98;;;;;;;;;;5077741;27;20046;-59
2023/10/23 03:35:24;;;;;;;4.68;1.08;;;;;;;;;;5113249;27;20498;-59
2023/10/23 03:37:52;;;;;;;1.13;0.90;;;;;;;;;;5112910;27;20415;-60
2023/10/23 03:40:20;;;;;;;1.45;0.90;;;;;;;;;;5094251;27;20040;-59
2023/10/23 03:42:50;;;;;;;1.83;1.00;;;;;;;;;;5119551;27;20031;-58
2023/10/23 03:45:16;;;;;;;1.08;0.80;;;;;;;;;;5093965;27;20042;-59
2023/10/23 03:47:42;;;;;;;0.88;0.80;;;;;;;;;;5105803;28;20028;-59
2023/10/23 03:50:08;;;;;;;1.15;0.90;;;;;;;;;;5118118;27;20505;-59
2023/10/23 03:52:34;;;;;;;4.32;0.85;;;;;;;;;;5118525;27;20402;-59
2023/10/23 03:55:01;;;;;;;6.05;1.00;;;;;;;;;;5106814;28;20541;-59
2023/10/23 03:57:27;;;;;;;1.13;0.90;;;;;;;;;;5116828;27;20046;-59
2023/10/23 03:59:53;;;;;;;1.88;0.80;;;;;;;;;;5108548;28;20055;-60
2023/10/23 04:02:19;;;;;;;2.42;1.00;;;;;;;;;;5100630;28;20031;-60
2023/10/23 04:04:45;;;;;;;3.20;0.85;;;;;;;;;;5110768;27;20044;-60
2023/10/23 04:07:11;;;;;;;1.55;1.00;;;;;;;;;;5110562;27;20047;-59
2023/10/23 04:09:37;;;;;;;3.75;1.08;;;;;;;;;;5097566;28;20039;-60
2023/10/23 04:12:03;;;;;;;5.05;2.00;;;;;;;;;;5114855;27;20510;-61
2023/10/23 04:14:30;;;;;;;12.20;3.63;;;;;;;;;;5121294;27;20102;-59
2023/10/23 04:16:56;;;;;;;3.65;2.10;;;;;;;;;;5115119;27;20526;-58
2023/10/23 04:19:22;;;;;;;3.42;1.10;;;;;;;;;;5091734;27;20066;-58
2023/10/23 04:21:48;;;;;;;1.95;0.90;;;;;;;;;;5121324;27;20494;-60
2023/10/23 04:24:15;;;;;;;0.80;0.60;;;;;;;;;;5091206;27;20434;-59
2023/10/23 04:26:41;;;;;;;2.72;0.85;;;;;;;;;;5112045;27;20035;-59
2023/10/23 04:29:08;;;;;;;2.45;0.95;;;;;;;;;;5088127;28;20032;-59
2023/10/23 04:31:34;;;;;;;1.38;0.90;;;;;;;;;;5091191;28;20032;-59
2023/10/23 04:34:00;;;;;;;2.80;0.70;;;;;;;;;;5105585;28;20368;-59
2023/10/23 04:36:26;;;;;;;2.90;0.95;;;;;;;;;;5105924;27;20027;-59
2023/10/23 04:38:52;;;;;;;1.02;0.90;;;;;;;;;;5113412;27;20028;-59
2023/10/23 04:41:19;;;;;;;1.67;0.90;;;;;;;;;;5117265;27;20376;-59
2023/10/23 04:43:45;;;;;;;2.53;0.98;;;;;;;;;;5113843;27;20047;-59
2023/10/23 04:46:11;;;;;;;1.10;1.00;;;;;;;;;;5102165;27;20051;-59
2023/10/23 04:48:37;;;;;;;2.30;0.80;;;;;;;;;;5116820;27;20461;-59
2023/10/23 04:51:03;;;;;;;2.05;0.90;;;;;;;;;;5118293;27;20402;-59
2023/10/23 04:53:29;;;;;;;1.00;0.90;;;;;;;;;;5122016;27;20035;-59
2023/10/23 04:55:55;;;;;;;1.52;0.77;;;;;;;;;;5119255;27;20038;-59
2023/10/23 04:58:22;;;;;;;3.53;0.93;;;;;;;;;;5109773;27;20038;-59
2023/10/23 05:00:48;;;;;;;1.27;0.95;;;;;;;;;;5109888;28;20042;-59
2023/10/23 05:03:15;;;;;;;1.88;0.93;;;;;;;;;;5113392;27;20042;-58
2023/10/23 05:05:47;;;;;;;2.80;0.90;;;;;;;;;;5107294;28;20530;-58
2023/10/23 05:08:13;;;;;;;2.35;1.00;;;;;;;;;;5110244;27;20039;-60
2023/10/23 05:10:39;;;;;;;3.45;0.90;;;;;;;;;;5113566;27;20031;-59
2023/10/23 05:13:05;;;;;;;13.77;4.47;;;;;;;;;;5119277;27;20034;-60
2023/10/23 05:15:31;;;;;;;12.63;4.75;;;;;;;;;;5121337;27;20425;-59
2023/10/23 05:17:57;;;;;;;8.10;3.13;;;;;;;;;;5092491;28;20047;-60
2023/10/23 05:20:24;;;;;;;2.92;1.40;;;;;;;;;;5118217;27;20031;-59
2023/10/23 05:22:50;;;;;;;5.97;1.15;;;;;;;;;;5118797;27;20046;-59
2023/10/23 05:25:16;;;;;;;4.72;1.45;;;;;;;;;;5099768;27;20040;-59
2023/10/23 05:27:42;;;;;;;3.78;1.60;;;;;;;;;;5111350;27;20058;-59
2023/10/23 05:30:08;;;;;;;4.75;2.25;;;;;;;;;;5117207;27;20581;-59
2023/10/23 05:32:35;;;;;;;4.43;2.08;;;;;;;;;;5117447;27;20054;-59
2023/10/23 05:35:04;;;;;;;6.30;1.60;;;;;;;;;;5089274;27;20035;-59
2023/10/23 05:37:35;;;;;;;2.78;1.10;;;;;;;;;;5109725;27;20047;-59
2023/10/23 05:40:03;;;;;;;3.45;0.80;;;;;;;;;;5110495;27;20050;-58
2023/10/23 05:42:30;;;;;;;4.15;1.23;;;;;;;;;;5112432;27;20035;-59
2023/10/23 05:44:57;;;;;;;2.25;1.40;;;;;;;;;;5094914;27;20422;-58
2023/10/23 05:47:24;;;;;;;14.00;6.15;;;;;;;;;;5112011;27;20412;-58
2023/10/23 05:49:50;;;;;;;8.82;3.65;;;;;;;;;;5114757;27;20027;-59
2023/10/23 05:52:16;;;;;;;3.30;1.60;;;;;;;;;;5111709;27;20491;-59
2023/10/23 05:54:43;;;;;;;2.67;1.20;;;;;;;;;;5120443;27;20468;-59
2023/10/23 05:57:09;;;;;;;4.25;1.50;;;;;;;;;;5112493;27;20054;-59
2023/10/23 05:59:35;;;;;;;3.55;1.38;;;;;;;;;;5116954;27;20046;-57
2023/10/23 06:02:01;;;;;;;8.05;1.52;;;;;;;;;;5113802;27;20044;-59
2023/10/23 06:04:27;;;;;;;7.72;1.73;;;;;;;;;;5115615;27;20212;-58
2023/10/23 06:06:53;;;;;;;8.07;3.10;;;;;;;;;;5102345;28;20039;-59
2023/10/23 06:09:19;;;;;;;8.18;3.45;;;;;;;;;;5093050;28;20054;-59
2023/10/23 06:11:45;;;;;;;6.45;2.85;;;;;;;;;;5117435;27;20028;-59
2023/10/23 06:14:11;;;;;;;10.95;4.15;;;;;;;;;;5117953;27;20058;-59
2023/10/23 06:16:37;;;;;;;6.00;3.40;;;;;;;;;;5112865;27;20042;-59
2023/10/23 06:19:05;;;;;;;7.05;2.70;;;;;;;;;;5110947;27;20036;-59
2023/10/23 06:21:31;;;;;;;3.75;2.25;;;;;;;;;;5111597;27;20651;-59
2023/10/23 06:23:58;;;;;;;3.38;2.05;;;;;;;;;;5106630;27;20042;-59
2023/10/23 06:26:24;;;;;;;6.28;2.47;;;;;;;;;;5109144;27;20040;-59
2023/10/23 06:28:50;;;;;;;2.42;1.75;;;;;;;;;;5102773;28;20529;-59
2023/10/23 06:31:16;;;;;;;7.18;2.70;;;;;;;;;;5100973;28;20042;-58
2023/10/23 06:33:43;;;;;;;11.32;5.05;;;;;;;;;;5103529;28;20521;-58
2023/10/23 06:36:09;;;;;;;35.80;12.50;;;;;;;;;;5105156;27;20056;-58
2023/10/23 06:38:36;;;;;;;22.00;8.27;;;;;;;;;;5108470;27;20044;-59
2023/10/23 06:41:04;;;;;;;14.25;6.78;;;;;;;;;;5111942;27;20058;-59
2023/10/23 06:43:37;;;;;;;12.80;5.75;;;;;;;;;;5111290;28;20031;-59
2023/10/23 06:46:03;;;;;;;11.85;5.15;;;;;;;;;;5103981;28;20038;-59
2023/10/23 06:48:30;;;;;;;9.02;4.38;;;;;;;;;;5100619;28;20409;-58
2023/10/23 06:50:56;;;;;;;13.00;4.60;;;;;;;;;;5117324;28;20430;-59
2023/10/23 06:53:22;;;;;;;11.90;7.78;;;;;;;;;;5116340;28;20047;-59
2023/10/23 06:55:54;;;;;;;7.95;5.03;;;;;;;;;;5110629;28;20414;-59
2023/10/23 06:58:20;;;;;;;10.40;6.15;;;;;;;;;;5106061;28;20035;-58
2023/10/23 07:00:48;;;;;;;20.52;12.68;;;;;;;;;;5106460;28;20043;-58
2023/10/23 07:03:14;;;;;;;18.85;11.27;;;;;;;;;;5104621;28;20048;-58
2023/10/23 07:05:41;;;;;;;12.88;7.18;;;;;;;;;;5104368;28;20530;-59
2023/10/23 07:08:07;;;;;;;15.32;8.05;;;;;;;;;;5099330;28;20413;-59
2023/10/23 07:10:34;;;;;;;10.85;5.78;;;;;;;;;;5082533;28;20034;-58
2023/10/23 07:13:02;;;;;;;11.55;7.45;;;;;;;;;;5098230;28;20050;-58
2023/10/23 07:15:31;;;;;;;16.10;8.93;;;;;;;;;;5111463;28;20038;-58
2023/10/23 07:17:58;;;;;;;21.55;10.27;;;;;;;;;;5107582;28;20027;-59
2023/10/23 07:20:24;;;;;;;17.65;8.15;;;;;;;;;;5103705;28;20043;-58
2023/10/23 07:22:50;;;;;;;12.82;6.55;;;;;;;;;;5107878;28;20035;-59
2023/10/23 07:25:17;;;;;;;13.10;7.30;;;;;;;;;;5115392;28;20056;-59
2023/10/23 07:27:43;;;;;;;16.67;7.60;;;;;;;;;;5110310;28;20491;-58
2023/10/23 07:30:11;;;;;;;13.73;7.40;;;;;;;;;;5096004;28;20062;-59
2023/10/23 07:32:37;;;;;;;15.23;7.32;;;;;;;;;;5105065;28;20661;-59
2023/10/23 07:35:04;;;;;;;15.50;8.23;;;;;;;;;;5104631;28;20031;-59
2023/10/23 07:37:30;;;;;;;15.45;7.95;;;;;;;;;;5108772;28;20077;-59
2023/10/23 07:39:57;;;;;;;14.80;6.97;;;;;;;;;;5093248;28;20059;-58
2023/10/23 07:42:23;;;;;;;14.68;6.68;;;;;;;;;;5115164;27;20501;-58
2023/10/23 07:44:50;;;;;;;14.25;6.95;;;;;;;;;;5093347;28;20047;-58
2023/10/23 07:47:16;;;;;;;16.98;8.65;;;;;;;;;;5122003;27;20027;-59
2023/10/23 07:49:42;;;;;;;15.05;8.20;;;;;;;;;;5118633;27;20047;-59
2023/10/23 07:52:08;;;;;;;14.85;8.55;;;;;;;;;;5099852;28;20042;-59
2023/10/23 07:54:34;;;;;;;19.05;8.90;;;;;;;;;;5109414;28;20053;-58
2023/10/23 07:57:00;;;;;;;16.80;8.75;;;;;;;;;;5115190;27;20030;-59
2023/10/23 07:59:26;;;;;;;20.05;10.23;;;;;;;;;;5103528;28;20050;-58
2023/10/23 08:01:52;;;;;;;18.33;10.55;;;;;;;;;;5115326;27;20019;-58
2023/10/23 08:04:19;;;;;;;17.10;9.35;;;;;;;;;;5106442;28;20048;-59
2023/10/23 08:06:45;;;;;;;19.80;10.15;;;;;;;;;;5106166;28;20407;-59
2023/10/23 08:09:11;;;;;;;20.67;10.30;;;;;;;;;;5107523;27;20055;-58
2023/10/23 08:11:38;;;;;;;26.52;11.23;;;;;;;;;;5123229;27;20027;-58
2023/10/23 08:14:04;;;;;;;18.50;10.25;;;;;;;;;;5120177;27;20048;-58
2023/10/23 08:16:31;;;;;;;18.75;10.52;;;;;;;;;;5112863;27;20031;-58
2023/10/23 08:18:57;;;;;;;20.95;10.38;;;;;;;;;;5115072;27;20055;-58
2023/10/23 08:21:26;;;;;;;23.88;11.55;;;;;;;;;;5121247;27;20394;-58
2023/10/23 08:23:56;;;;;;;54.15;20.40;;;;;;;;;;5120922;27;20061;-58
2023/10/23 08:26:23;;;;;;;44.28;19.48;;;;;;;;;;5110063;27;20039;-58
2023/10/23 08:28:49;;;;;;;31.60;13.70;;;;;;;;;;5094256;28;20048;-58
2023/10/23 08:31:16;;;;;;;29.17;12.55;;;;;;;;;;5116167;27;20034;-58
2023/10/23 08:33:43;;;;;;;23.65;11.30;;;;;;;;;;5117836;27;20405;-58
2023/10/23 08:36:09;;;;;;;20.92;10.82;;;;;;;;;;5117059;27;20039;-58
2023/10/23 08:38:35;;;;;;;28.48;12.60;;;;;;;;;;5111465;27;20051;-59
2023/10/23 08:41:03;;;;;;;22.25;10.95;;;;;;;;;;5106351;27;20028;-59
2023/10/23 08:43:32;;;;;;;22.63;10.27;;;;;;;;;;5125146;27;20035;-59
2023/10/23 08:46:00;;;;;;;18.58;10.80;;;;;;;;;;5105016;27;20038;-59
2023/10/23 08:48:27;;;;;;;21.45;11.10;;;;;;;;;;5119607;27;20027;-59
2023/10/23 08:50:56;;;;;;;25.50;10.88;;;;;;;;;;5118518;27;20040;-59
2023/10/23 08:53:25;;;;;;;27.08;11.52;;;;;;;;;;5100412;28;20031;-59
2023/10/23 08:55:51;;;;;;;22.98;12.05;;;;;;;;;;5108386;27;20040;-59
2023/10/23 08:58:20;;;;;;;23.27;10.88;;;;;;;;;;5112830;27;20027;-59
2023/10/23 09:00:46;;;;;;;21.63;11.63;;;;;;;;;;5107675;28;20047;-60
2023/10/23 09:03:14;;;;;;;23.23;11.93;;;;;;;;;;5112666;27;20062;-59
2023/10/23 09:05:40;;;;;;;23.20;12.05;;;;;;;;;;5109140;27;20530;-59
2023/10/23 09:08:06;;;;;;;26.92;12.02;;;;;;;;;;5099095;28;20035;-59
2023/10/23 09:10:32;;;;;;;29.00;12.93;;;;;;;;;;5087390;28;20047;-59
2023/10/23 09:12:58;;;;;;;28.27;12.55;;;;;;;;;;5112616;27;20459;-58
2023/10/23 09:15:24;;;;;;;34.53;13.85;;;;;;;;;;5112415;27;20043;-58
2023/10/23 09:17:51;;;;;;;30.20;13.50;;;;;;;;;;5111893;27;20059;-58
2023/10/23 09:20:20;;;;;;;20.63;12.65;;;;;;;;;;5113913;27;20055;-58
2023/10/23 09:22:50;;;;;;;23.48;12.10;;;;;;;;;;5113100;27;20065;-59
2023/10/23 09:25:25;;;;;;;21.80;11.57;;;;;;;;;;5117275;27;20034;-59
2023/10/23 09:27:52;;;;;;;29.60;13.68;;;;;;;;;;5113221;27;20498;-59
2023/10/23 09:30:21;;;;;;;27.55;12.85;;;;;;;;;;5099060;27;20031;-59
2023/10/23 09:32:53;;;;;;;29.80;13.05;;;;;;;;;;5102142;27;20036;-59
2023/10/23 09:35:21;;;;;;;41.20;16.40;;;;;;;;;;5110050;27;20043;-59
2023/10/23 09:37:48;;;;;;;41.93;20.30;;;;;;;;;;5103303;28;20059;-59
2023/10/23 09:40:16;;;;;;;29.98;15.20;;;;;;;;;;5105089;28;20035;-59
2023/10/23 09:42:43;;;;;;;29.48;14.10;;;;;;;;;;5112762;27;20039;-58
2023/10/23 09:45:10;;;;;;;30.83;14.38;;;;;;;;;;5118817;27;20074;-58
2023/10/23 09:47:36;;;;;;;31.10;13.93;;;;;;;;;;5119286;27;20031;-58
2023/10/23 09:50:03;;;;;;;32.47;17.85;;;;;;;;;;5116864;27;20032;-58
2023/10/23 09:52:35;;;;;;;34.45;16.05;;;;;;;;;;5106680;28;20043;-59
2023/10/23 09:55:04;;;;;;;26.40;14.20;;;;;;;;;;5112606;27;20047;-58
2023/10/23 09:57:36;;;;;;;27.60;13.07;;;;;;;;;;5112883;27;20031;-58
2023/10/23 10:00:13;;;;;;;29.83;12.82;;;;;;;;;;5105154;28;20043;-59
2023/10/23 10:02:44;;;;;;;27.42;12.68;;;;;;;;;;5107225;27;20055;-59
2023/10/23 10:05:19;;;;;;;25.73;13.30;;;;;;;;;;5076121;28;20036;-59
2023/10/23 10:07:55;;;;;;;27.00;13.88;;;;;;;;;;5086415;28;20503;-59
2023/10/23 10:10:22;;;;;;;39.92;18.63;;;;;;;;;;5109522;27;20059;-59
2023/10/23 10:12:48;;;;;;;26.92;13.65;;;;;;;;;;5102730;28;20031;-59
2023/10/23 10:15:16;;;;;;;26.83;13.02;;;;;;;;;;5109004;27;20050;-59
2023/10/23 10:17:43;;;;;;;30.35;14.57;;;;;;;;;;5118241;27;20510;-59
2023/10/23 10:20:10;;;;;;;29.25;12.18;;;;;;;;;;5114458;27;20051;-59
2023/10/23 10:22:42;;;;;;;15.32;6.32;;;;;;;;;;5071197;28;20038;-59
2023/10/23 10:25:09;;;;;;;13.88;6.68;;;;;;;;;;5102654;28;20035;-59
2023/10/23 10:27:35;;;;;;;13.00;7.30;;;;;;;;;;5117476;27;20050;-59
2023/10/23 10:30:04;;;;;;;16.65;8.10;;;;;;;;;;5117376;27;20046;-60
2023/10/23 10:32:33;;;;;;;18.80;8.43;;;;;;;;;;5102292;28;20459;-60
2023/10/23 10:35:03;;;;;;;22.23;8.32;;;;;;;;;;5107106;27;20040;-59
2023/10/23 10:37:31;;;;;;;19.27;9.52;;;;;;;;;;5096535;28;20044;-58
2023/10/23 10:39:57;;;;;;;21.88;10.55;;;;;;;;;;5104273;28;20040;-60
2023/10/23 10:42:24;;;;;;;25.92;9.60;;;;;;;;;;5113692;27;20039;-58
2023/10/23 10:44:57;;;;;;;21.20;8.88;;;;;;;;;;5109143;28;20047;-59
2023/10/23 10:47:46;;;;;;;19.00;8.10;;;;;;;;;;5117024;28;20042;-59
2023/10/23 10:50:29;;;;;;;19.83;8.25;;;;;;;;;;5115739;28;20040;-59
2023/10/23 10:52:59;;;;;;;16.30;8.60;;;;;;;;;;5110852;28;20043;-58
2023/10/23 10:55:27;;;;;;;20.85;7.50;;;;;;;;;;5110859;28;20038;-59
2023/10/23 10:57:54;;;;;;;16.20;7.15;;;;;;;;;;5113585;28;20035;-59
2023/10/23 11:00:22;;;;;;;19.42;8.82;;;;;;;;;;5107300;28;20527;-59
2023/10/23 11:02:49;;;;;;;24.67;12.03;;;;;;;;;;5109473;28;20048;-58
2023/10/23 11:05:15;;;;;;;27.58;13.25;;;;;;;;;;5111027;28;20032;-59
2023/10/23 11:07:41;;;;;;;23.98;10.98;;;;;;;;;;5105015;28;20729;-58
2023/10/23 11:10:08;;;;;;;21.65;9.60;;;;;;;;;;5101868;28;20032;-58
2023/10/23 11:12:34;;;;;;;14.40;7.45;;;;;;;;;;5104316;28;20035;-59
2023/10/23 11:15:00;;;;;;;18.73;7.90;;;;;;;;;;5103131;28;20047;-58
2023/10/23 11:17:26;;;;;;;17.70;7.50;;;;;;;;;;5104359;28;20031;-58
2023/10/23 11:19:52;;;;;;;18.45;7.43;;;;;;;;;;5105751;28;20036;-60
2023/10/23 11:22:21;;;;;;;14.65;7.22;;;;;;;;;;5107573;28;20055;-58
2023/10/23 11:24:47;;;;;;;15.73;7.27;;;;;;;;;;5108203;28;20035;-58
2023/10/23 11:27:14;;;;;;;18.40;8.07;;;;;;;;;;5089261;28;20502;-59
2023/10/23 11:29:47;;;;;;;14.65;8.45;;;;;;;;;;5104785;28;20050;-59
2023/10/23 11:32:15;;;;;;;21.80;8.20;;;;;;;;;;5089459;28;20061;-59
2023/10/23 11:34:42;;;;;;;21.20;9.48;;;;;;;;;;5107715;28;20426;-58
2023/10/23 11:37:10;;;;;;;18.35;8.63;;;;;;;;;;5087485;28;20039;-59
2023/10/23 11:39:38;;;;;;;17.48;8.57;;;;;;;;;;5109500;28;20396;-59
2023/10/23 11:42:05;;;;;;;18.23;8.98;;;;;;;;;;5110590;28;20039;-58
2023/10/23 11:44:36;;;;;;;21.08;9.80;;;;;;;;;;5103702;28;20517;-59
2023/10/23 11:47:07;;;;;;;21.38;9.05;;;;;;;;;;5106914;28;20035;-59
2023/10/23 11:49:33;;;;;;;17.38;8.85;;;;;;;;;;5109539;28;20064;-59
2023/10/23 11:52:01;;;;;;;23.00;10.43;;;;;;;;;;5102390;28;20024;-59
2023/10/23 11:54:28;;;;;;;20.58;10.20;;;;;;;;;;5101104;28;20044;-59
2023/10/23 11:56:56;;;;;;;22.73;9.48;;;;;;;;;;5099126;28;20039;-59
2023/10/23 11:59:22;;;;;;;23.30;9.48;;;;;;;;;;5097286;28;20494;-59
2023/10/23 12:01:56;;;;;;;19.95;6.10;;;;;;;;;;5081057;28;20047;-59
2023/10/23 12:04:22;;;;;;;12.30;5.82;;;;;;;;;;5105266;27;20410;-59
2023/10/23 12:06:49;;;;;;;19.20;7.00;;;;;;;;;;5106423;27;20039;-59
2023/10/23 12:09:15;;;;;;;15.13;7.50;;;;;;;;;;5107481;27;20400;-58
2023/10/23 12:11:41;;;;;;;22.05;8.77;;;;;;;;;;5106615;28;20509;-59
2023/10/23 12:14:07;;;;;;;18.25;8.50;;;;;;;;;;5106051;28;20043;-59
2023/10/23 12:16:33;;;;;;;20.85;9.10;;;;;;;;;;5086368;28;20061;-59
2023/10/23 12:19:00;;;;;;;18.98;8.25;;;;;;;;;;5104538;28;20048;-59
2023/10/23 12:21:26;;;;;;;14.80;7.95;;;;;;;;;;5106987;28;20418;-58
2023/10/23 12:23:52;;;;;;;17.00;7.50;;;;;;;;;;5106246;28;20443;-58
2023/10/23 12:26:18;;;;;;;21.25;7.95;;;;;;;;;;5104376;28;20553;-58
2023/10/23 12:28:45;;;;;;;19.30;7.55;;;;;;;;;;5110820;27;20119;-58
2023/10/23 12:31:11;;;;;;;16.42;7.82;;;;;;;;;;5106918;27;20046;-58
2023/10/23 12:33:37;;;;;;;23.95;9.80;;;;;;;;;;5105217;27;20044;-59
2023/10/23 12:36:06;;;;;;;26.17;9.93;;;;;;;;;;5089105;28;20035;-59
2023/10/23 12:38:35;;;;;;;25.70;10.80;;;;;;;;;;5081566;28;20047;-59
2023/10/23 12:41:02;;;;;;;30.92;11.68;;;;;;;;;;5101673;27;20395;-58
2023/10/23 12:43:28;;;;;;;28.80;10.95;;;;;;;;;;5094975;28;20410;-58
2023/10/23 12:45:54;;;;;;;26.17;11.25;;;;;;;;;;5084790;28;20047;-58
2023/10/23 12:48:20;;;;;;;22.85;10.38;;;;;;;;;;5099172;28;20039;-58
2023/10/23 12:50:46;;;;;;;22.45;9.35;;;;;;;;;;5102311;28;20039;-58
2023/10/23 12:53:13;;;;;;;21.55;8.98;;;;;;;;;;5100461;27;20032;-58
2023/10/23 12:55:41;;;;;;;21.20;9.10;;;;;;;;;;5081732;28;20031;-58
2023/10/23 12:58:07;;;;;;;17.52;8.30;;;;;;;;;;5097248;28;20067;-58
2023/10/23 13:00:33;;;;;;;16.92;8.40;;;;;;;;;;5098716;28;20387;-58
2023/10/23 13:02:59;;;;;;;23.17;9.30;;;;;;;;;;5105546;27;20044;-58
2023/10/23 13:05:25;;;;;;;17.85;9.15;;;;;;;;;;5104833;28;20035;-58
2023/10/23 13:07:52;;;;;;;18.25;7.85;;;;;;;;;;5099363;27;20039;-58
2023/10/23 13:10:18;;;;;;;16.00;7.15;;;;;;;;;;5104937;27;20529;-58
2023/10/23 13:12:44;;;;;;;16.10;7.15;;;;;;;;;;5088786;28;20036;-58
2023/10/23 13:15:10;;;;;;;21.88;9.95;;;;;;;;;;5105611;27;20574;-59
2023/10/23 13:17:36;;;;;;;17.65;6.88;;;;;;;;;;5085058;28;20414;-58
2023/10/23 13:20:06;;;;;;;20.52;7.53;;;;;;;;;;5104595;27;20495;-58
2023/10/23 13:22:34;;;;;;;;;;;;;;;;;;5107211;28;20038;-58
2023/10/23 13:25:03;;;;;;;24.30;10.57;;;;;;;;;;5106091;27;19918;-58
2023/10/23 13:27:29;;;;;;;17.58;9.38;;;;;;;;;;5102559;28;20036;-58
2023/10/23 13:29:55;;;;;;;19.25;9.70;;;;;;;;;;5106102;28;20043;-58
2023/10/23 13:32:21;;;;;;;18.08;9.35;;;;;;;;;;5104706;27;20044;-58
2023/10/23 13:34:47;;;;;;;21.52;11.02;;;;;;;;;;5104784;27;20077;-58
2023/10/23 13:37:13;;;;;;;16.90;9.82;;;;;;;;;;5103708;27;20040;-58
2023/10/23 13:39:39;;;;;;;18.42;10.05;;;;;;;;;;5084019;28;20038;-58
2023/10/23 13:42:05;;;;;;;17.90;9.45;;;;;;;;;;5113879;27;20504;-58
2023/10/23 13:44:32;;;;;;;21.17;10.52;;;;;;;;;;5100784;28;20050;-58
2023/10/23 13:46:59;;;;;;;20.17;9.60;;;;;;;;;;5100126;28;20050;-58
2023/10/23 13:49:25;;;;;;;20.15;9.95;;;;;;;;;;5103373;28;20054;-58
2023/10/23 13:51:51;;;;;;;19.65;10.00;;;;;;;;;;5102182;27;20036;-58
2023/10/23 13:54:17;;;;;;;23.35;10.52;;;;;;;;;;5096750;27;20051;-58
2023/10/23 13:56:45;;;;;;;19.25;9.43;;;;;;;;;;5097326;27;20418;-58
2023/10/23 13:59:11;;;;;;;20.02;9.63;;;;;;;;;;5103790;27;20040;-58
2023/10/23 14:01:37;;;;;;;23.38;9.75;;;;;;;;;;5108105;27;20035;-58
2023/10/23 14:04:03;;;;;;;20.20;8.88;;;;;;;;;;5087640;28;20032;-59
2023/10/23 14:06:29;;;;;;;17.55;8.40;;;;;;;;;;5105138;27;20039;-58
2023/10/23 14:08:56;;;;;;;18.23;8.18;;;;;;;;;;5103397;27;20036;-58
2023/10/23 14:11:22;;;;;;;19.60;8.90;;;;;;;;;;5087872;28;20093;-58
2023/10/23 14:13:49;;;;;;;17.30;8.85;;;;;;;;;;5106199;27;20028;-57
2023/10/23 14:16:15;;;;;;;18.45;9.20;;;;;;;;;;5103571;27;20418;-58
2023/10/23 14:18:41;;;;;;;20.17;8.77;;;;;;;;;;5083067;28;20047;-58
2023/10/23 14:21:07;;;;;;;24.85;10.13;;;;;;;;;;5103609;27;20054;-57
2023/10/23 14:23:33;;;;;;;17.13;9.10;;;;;;;;;;5105990;27;20426;-57
2023/10/23 14:25:59;;;;;;;16.70;10.05;;;;;;;;;;5106816;28;20509;-57
2023/10/23 14:28:25;;;;;;;23.00;12.02;;;;;;;;;;5102917;27;20031;-57
2023/10/23 14:30:51;;;;;;;26.05;12.20;;;;;;;;;;5104917;27;20070;-57